createdAt,value
2022-11-02T00:00:20.646Z,98137.09
2022-11-02T00:02:48.856Z,98133.75
2022-11-02T00:05:23.868Z,98139.97
2022-11-02T00:07:54.789Z,98146.91
2022-11-02T00:10:24.367Z,98141.66
2022-11-02T00:12:53.417Z,98137.34
2022-11-02T00:15:21.675Z,98127.09
2022-11-02T00:17:54.515Z,98136.44
2022-11-02T00:20:23.414Z,98137.28
2022-11-02T00:22:57.438Z,98152.19
2022-11-02T00:25:26.875Z,98155.75
2022-11-02T00:27:55.178Z,98143.25
2022-11-02T00:30:23.604Z,98151.16
2022-11-02T00:32:52.238Z,98154.75
2022-11-02T00:35:20.573Z,98150.44
2022-11-02T00:37:48.797Z,98147.78
2022-11-02T00:40:18.766Z,98153.91
2022-11-02T00:42:46.980Z,98141.88
2022-11-02T00:45:15.267Z,98156.59
2022-11-02T00:47:43.478Z,98154.56
2022-11-02T00:50:11.709Z,98146.91
2022-11-02T00:52:40.689Z,98142.56
2022-11-02T00:55:10.394Z,98148.72
2022-11-02T00:57:41.216Z,98139.16
2022-11-02T01:00:11.770Z,98144.50
2022-11-02T01:02:40.558Z,98144.44
2022-11-02T01:05:10.283Z,98146.28
2022-11-02T01:07:38.845Z,98069.47
2022-11-02T01:10:07.954Z,98145.28
2022-11-02T01:12:39.764Z,98139.78
2022-11-02T01:15:10.580Z,98136.38
2022-11-02T01:17:39.373Z,98139.78
2022-11-02T01:20:08.680Z,98141.81
2022-11-02T01:22:37.127Z,98107.75
2022-11-02T01:25:06.184Z,98140.50
2022-11-02T01:27:34.404Z,98139.66
2022-11-02T01:30:04.428Z,98130.09
2022-11-02T01:32:32.737Z,98129.19
2022-11-02T01:35:01.048Z,98135.75
2022-11-02T01:37:29.274Z,98137.44
2022-11-02T01:39:57.558Z,98139.16
2022-11-02T01:42:28.182Z,98137.94
2022-11-02T01:44:56.377Z,98046.56
2022-11-02T01:47:29.065Z,98139.03
2022-11-02T01:50:00.828Z,98137.31
2022-11-02T01:52:34.373Z,98133.88
2022-11-02T01:55:08.629Z,98126.22
2022-11-02T01:57:38.133Z,98136.41
2022-11-02T02:00:09.035Z,98135.56
2022-11-02T02:02:46.984Z,98105.25
2022-11-02T02:05:17.746Z,98125.81
2022-11-02T02:07:46.625Z,98121.34
2022-11-02T02:10:15.088Z,98108.38
2022-11-02T02:12:44.634Z,98121.38
2022-11-02T02:15:14.023Z,98122.22
2022-11-02T02:17:51.068Z,98112.53
2022-11-02T02:20:47.724Z,98107.41
2022-11-02T02:23:44.316Z,98117.66
2022-11-02T02:26:42.388Z,98107.63
2022-11-02T02:29:17.598Z,98114.13
2022-11-02T02:31:54.470Z,98086.84
2022-11-02T02:34:27.816Z,98110.94
2022-11-02T02:37:00.785Z,98115.28
2022-11-02T02:39:37.568Z,98118.00
2022-11-02T02:42:13.327Z,98102.59
2022-11-02T02:44:47.912Z,98126.91
2022-11-02T02:47:21.573Z,98136.56
2022-11-02T02:49:54.864Z,98139.88
2022-11-02T02:52:25.347Z,98138.97
2022-11-02T02:54:57.144Z,98062.31
2022-11-02T02:57:29.198Z,98133.78
2022-11-02T02:59:59.034Z,98144.31
2022-11-02T03:02:31.940Z,98132.97
2022-11-02T03:05:00.439Z,98102.50
2022-11-02T03:07:33.837Z,98136.53
2022-11-02T03:10:13.304Z,98111.31
2022-11-02T03:12:52.488Z,98124.06
2022-11-02T03:15:27.891Z,98081.94
2022-11-02T03:18:05.770Z,98121.66
2022-11-02T03:20:44.798Z,98079.41
2022-11-02T03:23:19.334Z,98120.84
2022-11-02T03:25:58.204Z,98120.06
2022-11-02T03:28:38.427Z,98112.41
2022-11-02T03:31:13.174Z,98127.59
2022-11-02T03:33:47.977Z,98109.75
2022-11-02T03:36:21.745Z,98115.19
2022-11-02T03:38:54.482Z,98105.25
2022-11-02T03:41:26.007Z,98099.25
2022-11-02T03:43:59.806Z,98145.19
2022-11-02T03:46:31.328Z,98102.09
2022-11-02T03:49:05.949Z,98145.25
2022-11-02T03:51:41.426Z,98141.88
2022-11-02T03:54:16.085Z,98147.78
2022-11-02T03:56:47.982Z,98152.00
2022-11-02T03:59:16.478Z,98158.03
2022-11-02T04:01:49.105Z,98155.00
2022-11-02T04:04:17.950Z,98139.00
2022-11-02T04:06:49.398Z,98162.38
2022-11-02T04:09:18.727Z,98150.31
2022-11-02T04:12:04.288Z,98160.56
2022-11-02T04:14:41.614Z,98158.84
2022-11-02T04:19:59.527Z,98134.63
2022-11-02T04:22:45.445Z,98165.84
2022-11-02T04:25:22.448Z,98155.47
2022-11-02T04:27:52.389Z,98163.88
2022-11-02T04:30:22.837Z,98171.47
2022-11-02T04:33:10.095Z,98098.53
2022-11-02T04:35:38.674Z,98172.78
2022-11-02T04:38:24.489Z,98171.09
2022-11-02T04:41:13.088Z,98178.28
2022-11-02T04:43:41.634Z,98176.63
2022-11-02T04:46:09.824Z,98178.47
2022-11-02T04:48:39.523Z,98186.34
2022-11-02T04:51:07.991Z,98182.00
2022-11-02T04:53:36.409Z,98181.09
2022-11-02T04:56:04.828Z,98177.69
2022-11-02T04:58:33.075Z,98181.28
2022-11-02T05:01:06.348Z,98181.34
2022-11-02T05:03:34.603Z,98179.63
2022-11-02T05:06:04.545Z,98178.75
2022-11-02T05:08:32.805Z,98174.47
2022-11-02T05:11:01.409Z,98178.00
2022-11-02T05:13:29.934Z,98178.06
2022-11-02T05:15:58.657Z,98178.91
2022-11-02T05:18:28.543Z,98185.94
2022-11-02T05:20:59.068Z,98186.81
2022-11-02T05:23:29.826Z,98179.97
2022-11-02T05:25:59.935Z,98185.31
2022-11-02T05:28:29.470Z,98188.84
2022-11-02T05:31:00.557Z,98135.31
2022-11-02T05:33:30.943Z,98184.56
2022-11-02T05:36:00.214Z,98183.75
2022-11-02T05:38:30.415Z,98185.66
2022-11-02T05:40:59.986Z,98184.66
2022-11-02T05:43:28.529Z,98187.41
2022-11-02T05:45:58.512Z,98069.28
2022-11-02T05:48:28.681Z,98200.41
2022-11-02T05:50:57.910Z,98199.66
2022-11-02T05:53:26.908Z,98102.75
2022-11-02T05:55:59.288Z,98209.09
2022-11-02T05:58:28.125Z,98204.81
2022-11-02T06:00:56.537Z,98199.06
2022-11-02T06:03:24.756Z,98211.94
2022-11-02T06:05:58.017Z,98217.34
2022-11-02T06:08:26.334Z,98219.19
2022-11-02T06:10:54.854Z,98224.44
2022-11-02T06:13:24.564Z,98223.31
2022-11-02T06:15:52.899Z,98231.28
2022-11-02T06:18:21.139Z,98227.91
2022-11-02T06:20:49.409Z,98235.63
2022-11-02T06:23:18.470Z,98228.66
2022-11-02T06:25:52.564Z,98231.22
2022-11-02T06:28:21.427Z,98219.09
2022-11-02T06:30:51.674Z,98246.06
2022-11-02T06:33:21.019Z,98241.63
2022-11-02T06:35:50.877Z,98247.59
2022-11-02T06:38:19.696Z,98190.59
2022-11-02T06:40:55.459Z,98256.28
2022-11-02T06:43:24.223Z,98244.25
2022-11-02T06:45:56.077Z,98258.81
2022-11-02T06:48:26.513Z,98263.13
2022-11-02T06:50:57.076Z,98263.94
2022-11-02T06:53:25.664Z,98260.19
2022-11-02T06:55:54.935Z,98265.41
2022-11-02T06:58:24.304Z,98273.19
2022-11-02T07:00:59.679Z,98254.81
2022-11-02T07:03:28.824Z,98267.41
2022-11-02T07:05:57.106Z,98259.97
2022-11-02T07:08:26.294Z,98259.28
2022-11-02T07:10:54.609Z,98260.84
2022-11-02T07:13:22.911Z,98268.50
2022-11-02T07:15:54.612Z,98259.44
2022-11-02T07:18:23.166Z,98270.44
2022-11-02T07:20:51.757Z,98270.09
2022-11-02T07:23:23.987Z,98271.41
2022-11-02T07:25:52.717Z,98271.09
2022-11-02T07:28:21.077Z,98178.47
2022-11-02T07:30:49.492Z,98272.69
2022-11-02T07:33:19.215Z,98280.31
2022-11-02T07:35:47.527Z,98281.00
2022-11-02T07:38:15.981Z,98277.44
2022-11-02T07:40:44.204Z,98271.97
2022-11-02T07:43:12.693Z,98260.66
2022-11-02T07:45:41.012Z,98241.75
2022-11-02T07:48:09.312Z,98274.72
2022-11-02T07:50:38.955Z,98274.34
2022-11-02T07:53:07.524Z,98281.03
2022-11-02T07:55:36.230Z,98275.63
2022-11-02T07:58:08.166Z,98281.13
2022-11-02T08:00:38.645Z,98268.66
2022-11-02T08:03:09.015Z,98284.00
2022-11-02T08:05:40.722Z,98279.22
2022-11-02T08:08:12.159Z,98276.66
2022-11-02T08:10:40.812Z,98261.56
2022-11-02T08:13:09.803Z,98234.56
2022-11-02T08:15:38.358Z,98271.44
2022-11-02T08:18:08.562Z,98264.84
2022-11-02T08:20:39.051Z,98281.44
2022-11-02T08:23:07.952Z,98272.44
2022-11-02T08:25:36.624Z,98296.31
2022-11-02T08:28:06.870Z,98257.09
2022-11-02T08:30:35.814Z,98276.31
2022-11-02T08:33:05.755Z,98280.81
2022-11-02T08:35:34.980Z,98270.72
2022-11-02T08:38:05.935Z,98191.94
2022-11-02T08:40:34.906Z,98270.06
2022-11-02T08:43:04.776Z,98270.63
2022-11-02T08:46:00.561Z,98278.00
2022-11-02T08:48:22.856Z,98277.75
2022-11-02T08:50:51.268Z,98282.88
2022-11-02T08:53:20.922Z,98252.66
2022-11-02T08:55:49.330Z,98277.34
2022-11-02T08:58:18.813Z,98274.63
2022-11-02T09:00:47.175Z,98276.84
2022-11-02T09:03:20.673Z,98275.22
2022-11-02T09:05:57.482Z,98226.59
2022-11-02T09:08:29.709Z,98273.94
2022-11-02T09:11:02.121Z,98278.91
2022-11-02T09:13:31.286Z,98261.16
2022-11-02T09:16:03.058Z,98272.06
2022-11-02T09:18:33.089Z,98248.78
2022-11-02T09:21:04.742Z,98285.56
2022-11-02T09:23:37.101Z,98218.75
2022-11-02T09:26:06.692Z,98258.75
2022-11-02T09:28:36.478Z,98276.16
2022-11-02T09:31:09.037Z,98284.25
2022-11-02T09:33:40.169Z,98252.56
2022-11-02T09:36:09.051Z,98280.06
2022-11-02T09:38:38.751Z,98264.69
2022-11-02T09:41:14.938Z,98269.00
2022-11-02T09:43:54.565Z,98282.59
2022-11-02T09:46:27.584Z,98267.25
2022-11-02T09:48:59.440Z,98260.50
2022-11-02T09:51:31.160Z,98263.19
2022-11-02T09:54:11.560Z,98249.38
2022-11-02T09:56:45.881Z,98225.28
2022-11-02T09:59:16.743Z,98277.56
2022-11-02T10:02:02.779Z,98261.22
2022-11-02T10:05:04.679Z,98268.78
2022-11-02T10:07:53.733Z,98268.78
2022-11-02T10:10:33.541Z,98267.19
2022-11-02T10:13:14.334Z,98272.06
2022-11-02T10:15:48.005Z,98265.78
2022-11-02T10:18:25.729Z,98265.84
2022-11-02T10:20:57.595Z,98260.13
2022-11-02T10:23:31.415Z,98264.03
2022-11-02T10:26:02.334Z,98247.13
2022-11-02T10:28:34.361Z,98259.59
2022-11-02T10:31:03.705Z,98252.66
2022-11-02T10:33:32.633Z,98213.31
2022-11-02T10:36:18.913Z,98251.69
2022-11-02T10:39:02.550Z,98249.97
2022-11-02T10:41:45.672Z,98244.75
2022-11-02T10:44:32.928Z,98234.66
2022-11-02T10:47:10.460Z,98236.41
2022-11-02T10:50:12.559Z,98235.41
2022-11-02T10:52:43.731Z,98223.72
2022-11-02T10:55:31.175Z,98228.53
2022-11-02T10:58:02.450Z,98229.03
2022-11-02T11:00:33.284Z,98206.91
2022-11-02T11:03:10.020Z,98220.91
2022-11-02T11:05:45.569Z,98202.69
2022-11-02T11:08:30.415Z,98216.97
2022-11-02T11:11:11.800Z,98214.03
2022-11-02T11:16:40.695Z,98212.41
2022-11-02T11:22:23.737Z,98205.53
2022-11-02T11:24:52.030Z,98191.91
2022-11-02T11:27:21.695Z,98178.16
2022-11-02T11:29:55.355Z,98192.25
2022-11-02T11:32:29.887Z,98187.44
2022-11-02T11:35:02.259Z,98203.66
2022-11-02T11:37:31.266Z,98197.47
2022-11-02T11:40:02.654Z,98194.97
2022-11-02T11:42:35.428Z,98195.31
2022-11-02T11:45:07.379Z,98172.50
2022-11-02T11:47:38.195Z,98185.72
2022-11-02T11:50:12.936Z,98179.19
2022-11-02T11:53:11.715Z,98181.94
2022-11-02T11:55:48.761Z,98154.47
2022-11-02T11:58:22.396Z,98169.41
2022-11-02T12:01:20.251Z,98183.59
2022-11-02T12:03:53.853Z,98176.59
2022-11-02T12:06:31.178Z,98171.25
2022-11-02T12:09:05.151Z,98183.31
2022-11-02T12:11:50.034Z,98174.84
2022-11-02T12:14:31.247Z,98170.13
2022-11-02T12:17:22.607Z,98160.16
2022-11-02T12:20:04.827Z,98163.91
2022-11-02T12:22:42.698Z,98161.16
2022-11-02T12:25:28.969Z,98162.53
2022-11-02T12:28:09.294Z,98149.50
2022-11-02T12:30:51.407Z,98160.81
2022-11-02T12:33:37.439Z,98154.63
2022-11-02T12:36:13.873Z,98128.06
2022-11-02T12:38:54.229Z,98142.84
2022-11-02T12:41:37.296Z,98128.03
2022-11-02T12:44:17.180Z,98141.94
2022-11-02T12:46:53.886Z,98131.13
2022-11-02T12:49:37.759Z,98106.81
2022-11-02T12:52:18.875Z,98113.09
2022-11-02T12:54:49.416Z,98073.06
2022-11-02T12:57:21.895Z,98132.69
2022-11-02T12:59:55.105Z,98129.91
2022-11-02T13:02:30.360Z,98113.91
2022-11-02T13:05:04.603Z,98109.97
2022-11-02T13:07:38.574Z,98126.38
2022-11-02T13:10:15.557Z,98120.16
2022-11-02T13:12:46.223Z,98122.50
2022-11-02T13:15:17.600Z,98108.97
2022-11-02T13:17:48.206Z,98036.47
2022-11-02T13:20:22.605Z,98094.94
2022-11-02T13:22:58.348Z,98118.75
2022-11-02T13:25:33.057Z,98098.47
2022-11-02T13:28:07.596Z,98112.75
2022-11-02T13:30:36.769Z,98117.28
2022-11-02T13:33:12.748Z,98124.97
2022-11-02T13:35:43.481Z,98121.09
2022-11-02T13:38:29.591Z,98080.88
2022-11-02T13:41:15.881Z,98093.50
2022-11-02T13:44:11.060Z,98112.22
2022-11-02T13:46:54.688Z,98115.13
2022-11-02T13:49:31.399Z,98117.41
2022-11-02T13:52:05.030Z,98128.56
2022-11-02T13:54:40.309Z,98113.38
2022-11-02T13:57:33.754Z,98127.41
2022-11-02T14:00:03.328Z,98111.38
2022-11-02T14:02:36.316Z,98121.44
2022-11-02T14:05:05.128Z,98127.69
2022-11-02T14:07:40.165Z,98124.00
2022-11-02T14:10:16.482Z,98099.19
2022-11-02T14:12:46.035Z,98122.25
2022-11-02T14:15:42.537Z,98126.91
2022-11-02T14:18:16.134Z,98105.69
2022-11-02T14:20:46.757Z,98117.28
2022-11-02T14:23:43.724Z,98121.81
2022-11-02T14:26:54.915Z,98132.69
2022-11-02T14:29:49.375Z,98104.19
2022-11-02T14:32:31.128Z,98141.94
2022-11-02T14:35:15.583Z,98141.38
2022-11-02T14:38:08.729Z,98117.00
2022-11-02T14:40:49.445Z,98143.97
2022-11-02T14:43:51.412Z,98146.09
2022-11-02T14:46:36.825Z,98140.56
2022-11-02T14:49:07.157Z,98120.09
2022-11-02T14:51:39.395Z,98147.09
2022-11-02T14:54:18.052Z,98133.44
2022-11-02T14:56:55.357Z,98157.31
2022-11-02T14:59:29.180Z,98140.00
2022-11-02T15:02:00.691Z,98147.72
2022-11-02T15:04:30.715Z,98159.50
2022-11-02T15:07:02.660Z,97969.00
2022-11-02T15:09:57.922Z,98154.56
2022-11-02T15:12:41.091Z,98155.78
2022-11-02T15:15:32.156Z,98158.41
2022-11-02T15:18:15.314Z,98163.16
2022-11-02T15:20:46.453Z,98168.91
2022-11-02T15:23:31.783Z,98177.28
2022-11-02T15:26:01.316Z,98164.69
2022-11-02T15:28:36.439Z,98147.13
2022-11-02T15:31:14.376Z,98185.22
2022-11-02T15:33:45.811Z,98187.09
2022-11-02T15:36:19.064Z,98137.50
2022-11-02T15:38:51.446Z,98108.56
2022-11-02T15:41:29.075Z,98185.72
2022-11-02T15:44:27.642Z,98185.16
2022-11-02T15:47:06.579Z,98187.16
2022-11-02T15:49:59.702Z,98191.03
2022-11-02T15:53:16.495Z,98113.06
2022-11-02T15:55:47.564Z,98186.59
2022-11-02T15:58:29.006Z,98197.44
2022-11-02T16:01:14.492Z,98140.09
2022-11-02T16:03:46.616Z,98190.63
2022-11-02T16:06:15.705Z,98193.28
2022-11-02T16:08:44.955Z,98197.78
2022-11-02T16:11:17.776Z,98185.22
2022-11-02T16:14:07.924Z,98195.75
2022-11-02T16:16:48.105Z,98153.06
2022-11-02T16:19:20.874Z,98196.19
2022-11-02T16:21:50.624Z,98168.59
2022-11-02T16:24:19.668Z,98179.44
2022-11-02T16:26:49.558Z,98193.44
2022-11-02T16:29:28.665Z,98191.75
2022-11-02T16:31:58.884Z,98186.09
2022-11-02T16:34:31.589Z,98182.69
2022-11-02T16:37:08.947Z,98167.66
2022-11-02T16:39:42.286Z,98192.97
2022-11-02T16:42:16.943Z,98197.03
2022-11-02T16:44:56.555Z,98205.19
2022-11-02T16:47:39.125Z,98204.63
2022-11-02T16:50:21.195Z,98167.16
2022-11-02T16:52:56.858Z,98211.03
2022-11-02T16:55:39.559Z,98211.22
2022-11-02T16:58:14.341Z,98195.78
2022-11-02T17:00:55.961Z,98214.72
2022-11-02T17:03:31.186Z,98211.84
2022-11-02T17:06:01.889Z,98178.97
2022-11-02T17:08:36.762Z,98204.78
2022-11-02T17:11:07.065Z,98193.19
2022-11-02T17:13:38.882Z,98218.16
2022-11-02T17:16:10.737Z,98221.66
2022-11-02T17:18:40.476Z,98221.91
2022-11-02T17:21:25.565Z,98203.75
2022-11-02T17:23:55.164Z,98198.84
2022-11-02T17:26:32.779Z,98167.59
2022-11-02T17:29:02.484Z,98205.59
2022-11-02T17:31:34.603Z,98226.59
2022-11-02T17:34:10.516Z,98232.03
2022-11-02T17:36:43.824Z,98182.13
2022-11-02T17:39:14.136Z,98219.03
2022-11-02T17:42:00.123Z,98224.31
2022-11-02T17:44:28.871Z,98225.25
2022-11-02T17:47:00.033Z,98234.88
2022-11-02T17:49:30.889Z,98201.53
2022-11-02T17:52:00.385Z,98222.97
2022-11-02T17:54:29.999Z,98236.81
2022-11-02T17:56:58.438Z,98218.66
2022-11-02T17:59:27.149Z,98242.19
2022-11-02T18:01:57.939Z,98240.69
2022-11-02T18:04:31.268Z,98233.69
2022-11-02T18:07:02.719Z,98207.13
2022-11-02T18:09:33.622Z,98233.81
2022-11-02T18:12:02.882Z,98240.03
2022-11-02T18:14:32.729Z,98236.56
2022-11-02T18:17:04.809Z,98155.84
2022-11-02T18:19:36.215Z,98254.97
2022-11-02T18:22:07.809Z,98216.75
2022-11-02T18:24:37.999Z,98225.53
2022-11-02T18:27:07.880Z,98248.63
2022-11-02T18:29:38.451Z,98247.69
2022-11-02T18:32:09.017Z,98241.78
2022-11-02T18:34:38.894Z,98242.53
2022-11-02T18:37:11.427Z,98247.03
2022-11-02T18:39:42.299Z,98243.34
2022-11-02T18:42:12.577Z,98216.06
2022-11-02T18:44:43.107Z,98217.88
2022-11-02T18:47:13.937Z,98251.47
2022-11-02T18:49:47.146Z,98250.53
2022-11-02T18:52:22.229Z,98202.19
2022-11-02T18:54:56.977Z,98244.16
2022-11-02T18:57:28.204Z,98183.94
2022-11-02T18:59:58.326Z,98207.16
2022-11-02T19:02:30.273Z,98253.81
2022-11-02T19:05:02.274Z,98247.75
2022-11-02T19:07:50.957Z,98231.50
2022-11-02T19:10:21.125Z,98261.72
2022-11-02T19:12:53.364Z,98255.47
2022-11-02T19:15:23.843Z,98270.22
2022-11-02T19:17:52.744Z,98255.47
2022-11-02T19:20:22.403Z,98266.78
2022-11-02T19:23:00.340Z,98251.25
2022-11-02T19:25:29.693Z,98264.63
2022-11-02T19:27:59.223Z,98285.84
2022-11-02T19:30:28.678Z,98258.50
2022-11-02T19:33:02.061Z,98278.03
2022-11-02T19:35:31.583Z,98233.16
2022-11-02T19:38:02.334Z,98249.63
2022-11-02T19:40:33.698Z,98266.97
2022-11-02T19:43:03.708Z,98273.56
2022-11-02T19:45:33.675Z,98266.66
2022-11-02T19:48:04.763Z,98279.13
2022-11-02T19:50:34.783Z,98281.13
2022-11-02T19:53:05.172Z,98230.78
2022-11-02T19:55:34.640Z,98264.31
2022-11-02T19:58:04.345Z,98277.66
2022-11-02T20:00:33.613Z,98274.50
2022-11-02T20:03:03.126Z,98285.19
2022-11-02T20:05:44.435Z,98282.69
2022-11-02T20:08:16.065Z,98268.72
2022-11-02T20:10:45.787Z,98275.00
2022-11-02T20:13:14.285Z,98279.53
2022-11-02T20:15:43.896Z,98284.88
2022-11-02T20:18:19.520Z,98290.22
2022-11-02T20:20:49.429Z,98301.56
2022-11-02T20:23:20.519Z,98286.00
2022-11-02T20:25:50.449Z,98275.56
2022-11-02T20:28:20.864Z,98258.88
2022-11-02T20:30:51.624Z,98290.03
2022-11-02T20:33:21.157Z,98298.72
2022-11-02T20:35:51.128Z,98294.38
2022-11-02T20:38:22.625Z,98300.84
2022-11-02T20:40:52.102Z,98305.31
2022-11-02T20:43:22.263Z,98301.75
2022-11-02T20:46:31.480Z,98310.47
2022-11-02T20:48:53.155Z,98282.06
2022-11-02T20:51:23.553Z,98299.19
2022-11-02T20:53:54.392Z,98301.03
2022-11-02T20:56:25.359Z,98257.94
2022-11-02T20:58:55.829Z,98265.69
2022-11-02T21:01:24.925Z,98289.13
2022-11-02T21:03:54.192Z,98298.69
2022-11-02T21:06:22.817Z,98292.56
2022-11-02T21:08:52.482Z,98288.16
2022-11-02T21:11:38.445Z,98292.69
2022-11-02T21:14:07.202Z,98284.78
2022-11-02T21:16:36.364Z,98281.94
2022-11-02T21:19:05.411Z,98293.38
2022-11-02T21:21:34.207Z,98294.91
2022-11-02T21:24:05.492Z,98298.50
2022-11-02T21:26:36.167Z,98292.38
2022-11-02T21:29:04.938Z,98281.97
2022-11-02T21:31:33.864Z,98290.72
2022-11-02T21:34:02.488Z,98274.38
2022-11-02T21:36:31.644Z,98290.06
2022-11-02T21:38:59.995Z,98283.06
2022-11-02T21:41:30.755Z,98293.38
2022-11-02T21:44:00.335Z,98296.19
2022-11-02T21:46:28.700Z,98290.97
2022-11-02T21:48:57.244Z,98274.97
2022-11-02T21:51:25.774Z,98279.44
2022-11-02T21:53:54.658Z,98257.47
2022-11-02T21:56:25.792Z,98291.91
2022-11-02T21:58:56.482Z,98272.91
2022-11-02T22:01:45.030Z,98204.94
2022-11-02T22:04:15.214Z,98266.25
2022-11-02T22:06:43.739Z,98290.25
2022-11-02T22:09:13.794Z,98178.66
2022-11-02T22:11:42.935Z,98243.94
2022-11-02T22:14:12.301Z,98252.88
2022-11-02T22:16:42.006Z,98258.13
2022-11-02T22:19:12.069Z,98288.28
2022-11-02T22:21:42.440Z,98270.88
2022-11-02T22:24:11.592Z,98295.78
2022-11-02T22:26:41.150Z,98262.34
2022-11-02T22:29:10.384Z,98292.41
2022-11-02T22:31:41.868Z,98256.41
2022-11-02T22:34:12.594Z,98288.22
2022-11-02T22:36:42.307Z,98283.09
2022-11-02T22:39:12.711Z,98196.88
2022-11-02T22:41:43.004Z,98284.09
2022-11-02T22:44:13.335Z,98286.72
2022-11-02T22:46:45.034Z,98162.75
2022-11-02T22:49:14.637Z,98296.34
2022-11-02T22:51:45.328Z,98221.88
2022-11-02T22:54:15.814Z,98305.78
2022-11-02T22:56:44.463Z,98306.66
2022-11-02T22:59:13.351Z,98305.03
2022-11-02T23:01:43.287Z,98304.06
2022-11-02T23:04:12.989Z,98286.00
2022-11-02T23:06:41.455Z,98295.41
2022-11-02T23:09:12.174Z,98297.19
2022-11-02T23:11:40.529Z,98297.13
2022-11-02T23:14:10.569Z,98189.97
2022-11-02T23:16:40.588Z,98287.41
2022-11-02T23:19:23.585Z,98261.00
2022-11-02T23:22:09.077Z,98262.34
2022-11-02T23:24:54.839Z,98284.63
2022-11-02T23:27:23.178Z,98288.06
2022-11-02T23:30:09.480Z,98286.41
2022-11-02T23:32:38.635Z,98283.66
2022-11-02T23:35:26.353Z,98286.94
2022-11-02T23:38:03.993Z,98286.94
2022-11-02T23:40:33.405Z,98286.22
2022-11-02T23:43:01.675Z,98282.84
2022-11-02T23:45:29.945Z,98284.56
2022-11-02T23:47:58.212Z,98291.50
2022-11-02T23:50:47.412Z,98286.97
2022-11-02T23:53:34.333Z,98290.44
2022-11-02T23:56:20.403Z,98293.06
2022-11-02T23:58:48.739Z,98156.72
